createdAt,value
2019-01-08T00:02:24.097Z,100482.80
2019-01-08T00:04:53.684Z,100471.58
2019-01-08T00:07:23.235Z,100470.70
2019-01-08T00:09:52.749Z,100468.57
2019-01-08T00:12:22.566Z,100453.93
2019-01-08T00:14:52.073Z,100450.93
2019-01-08T00:17:21.665Z,100447.95
2019-01-08T00:19:51.388Z,100441.06
2019-01-08T00:22:20.894Z,100431.64
2019-01-08T00:24:50.403Z,100430.81
2019-01-08T00:27:20.128Z,100411.83
2019-01-08T00:29:49.617Z,100403.23
2019-01-08T00:32:19.126Z,100404.99
2019-01-08T00:34:48.656Z,100389.89
2019-01-08T00:37:18.177Z,100398.94
2019-01-08T00:39:47.687Z,100385.17
2019-01-08T00:42:17.356Z,100375.29
2019-01-08T00:44:46.870Z,100370.12
2019-01-08T00:47:16.376Z,100365.41
2019-01-08T00:49:45.915Z,100361.06
2019-01-08T00:52:15.742Z,100349.00
2019-01-08T00:54:45.700Z,100352.47
2019-01-08T00:57:15.282Z,100342.13
2019-01-08T00:59:44.802Z,100350.30
2019-01-08T01:02:14.314Z,100337.31
2019-01-08T01:04:43.864Z,100336.48
2019-01-08T01:07:16.111Z,100326.09
2019-01-08T01:09:45.627Z,100325.63
2019-01-08T01:12:15.188Z,100308.77
2019-01-08T01:14:44.695Z,100304.89
2019-01-08T01:17:14.212Z,100298.00
2019-01-08T01:19:43.768Z,100291.95
2019-01-08T01:22:13.284Z,100279.44
2019-01-08T01:24:42.800Z,100276.44
2019-01-08T01:27:12.440Z,100276.02
2019-01-08T01:29:41.947Z,100275.60
2019-01-08T01:32:11.452Z,100260.50
2019-01-08T01:34:41.158Z,100244.94
2019-01-08T01:37:10.669Z,100238.05
2019-01-08T01:39:40.189Z,100245.34
2019-01-08T01:42:09.745Z,100238.88
2019-01-08T01:44:39.245Z,100219.02
2019-01-08T01:47:08.756Z,100218.19
2019-01-08T01:49:38.274Z,100212.18
2019-01-08T01:52:07.791Z,100209.64
2019-01-08T01:54:37.302Z,100204.51
2019-01-08T01:57:06.834Z,100204.55
2019-01-08T01:59:36.344Z,100204.59
2019-01-08T02:02:05.859Z,100186.06
2019-01-08T02:04:35.385Z,100175.34
2019-01-08T02:07:04.891Z,100175.39
2019-01-08T02:09:34.415Z,100165.50
2019-01-08T02:12:04.053Z,100162.08
2019-01-08T02:14:33.648Z,100159.08
2019-01-08T02:17:03.160Z,100151.77
2019-01-08T02:19:35.735Z,100144.05
2019-01-08T02:22:05.263Z,100145.81
2019-01-08T02:24:34.762Z,100145.43
2019-01-08T02:27:04.456Z,100146.80
2019-01-08T02:29:33.963Z,100136.45
2019-01-08T02:32:03.477Z,100139.08
2019-01-08T02:34:33.002Z,100133.48
2019-01-08T02:37:02.503Z,100120.59
2019-01-08T02:39:32.014Z,100115.92
2019-01-08T02:42:01.564Z,100116.41
2019-01-08T02:44:31.089Z,100103.97
2019-01-08T02:47:00.745Z,100102.30
2019-01-08T02:49:30.272Z,100099.75
2019-01-08T02:51:59.961Z,100095.03
2019-01-08T02:54:29.570Z,100081.25
2019-01-08T02:56:59.424Z,100082.58
2019-01-08T02:59:28.923Z,100084.75
2019-01-08T03:01:58.435Z,100069.30
2019-01-08T03:04:28.073Z,100059.86
2019-01-08T03:06:57.588Z,100054.25
2019-01-08T03:09:27.109Z,100053.00
2019-01-08T03:11:56.780Z,100043.52
2019-01-08T03:14:26.304Z,100030.61
2019-01-08T03:16:55.806Z,100031.10
2019-01-08T03:19:25.339Z,100019.48
2019-01-08T03:21:54.861Z,100016.13
2019-01-08T03:24:24.395Z,100014.91
2019-01-08T03:26:54.124Z,99999.41
2019-01-08T03:29:23.625Z,99993.38
2019-01-08T03:31:53.134Z,99976.62
2019-01-08T03:34:22.850Z,99976.62
2019-01-08T03:36:52.353Z,99979.27
2019-01-08T03:39:21.855Z,99971.09
2019-01-08T03:41:51.401Z,99973.70
2019-01-08T03:44:20.918Z,99962.54
2019-01-08T03:46:50.419Z,99961.31
2019-01-08T03:49:20.063Z,99945.77
2019-01-08T03:51:52.515Z,99955.55
2019-01-08T03:54:22.012Z,99947.13
2019-01-08T03:56:51.658Z,99941.75
2019-01-08T03:59:21.160Z,99939.34
2019-01-08T04:01:50.736Z,99926.97
2019-01-08T04:04:20.341Z,99922.84
2019-01-08T04:06:49.847Z,99911.86
2019-01-08T04:09:19.347Z,99917.27
2019-01-08T04:11:48.873Z,99912.75
2019-01-08T04:14:18.375Z,99907.42
2019-01-08T04:16:47.881Z,99904.27
2019-01-08T04:19:17.409Z,99890.78
2019-01-08T04:21:46.906Z,99879.91
2019-01-08T04:24:16.420Z,99877.70
2019-01-08T04:26:45.932Z,99876.83
2019-01-08T04:29:15.435Z,99877.17
2019-01-08T04:31:44.945Z,99886.14
2019-01-08T04:34:14.650Z,99883.59
2019-01-08T04:36:44.154Z,99873.75
2019-01-08T04:39:13.655Z,99866.07
2019-01-08T04:41:43.284Z,99856.98
2019-01-08T04:44:12.772Z,99848.25
2019-01-08T04:46:42.281Z,99834.41
2019-01-08T04:49:11.915Z,99829.55
2019-01-08T04:51:41.426Z,99827.72
2019-01-08T04:54:10.927Z,99818.61
2019-01-08T04:56:40.750Z,99797.94
2019-01-08T04:59:10.327Z,99793.61
2019-01-08T05:01:39.860Z,99785.85
2019-01-08T05:04:09.381Z,99784.10
2019-01-08T05:06:38.892Z,99770.27
2019-01-08T05:09:08.399Z,99766.81
2019-01-08T05:11:37.924Z,99761.69
2019-01-08T05:14:07.452Z,99747.02
2019-01-08T05:16:36.958Z,99748.24
2019-01-08T05:19:06.782Z,99738.70
2019-01-08T05:21:36.297Z,99735.63
2019-01-08T05:24:05.865Z,99723.14
2019-01-08T05:26:35.394Z,99729.21
2019-01-08T05:29:04.899Z,99725.79
2019-01-08T05:31:34.433Z,99725.52
2019-01-08T05:34:03.960Z,99721.85
2019-01-08T05:36:33.472Z,99721.56
2019-01-08T05:39:04.153Z,99716.18
2019-01-08T05:41:33.858Z,99703.36
2019-01-08T05:44:03.369Z,99708.23
2019-01-08T05:46:32.877Z,99696.73
2019-01-08T05:49:02.698Z,99692.08
2019-01-08T05:51:32.216Z,99683.98
2019-01-08T05:54:01.719Z,99674.57
2019-01-08T05:56:31.242Z,99670.75
2019-01-08T05:59:00.750Z,99672.98
2019-01-08T06:01:30.274Z,99673.88
2019-01-08T06:03:59.779Z,99666.18
2019-01-08T06:06:29.304Z,99653.70
2019-01-08T06:08:58.814Z,99656.81
2019-01-08T06:11:28.320Z,99652.17
2019-01-08T06:13:57.839Z,99641.04
2019-01-08T06:16:27.353Z,99647.14
2019-01-08T06:18:56.887Z,99637.73
2019-01-08T06:21:26.392Z,99640.41
2019-01-08T06:23:55.909Z,99636.15
2019-01-08T06:26:25.423Z,99630.13
2019-01-08T06:28:54.946Z,99622.81
2019-01-08T06:31:24.452Z,99607.70
2019-01-08T06:33:53.974Z,99606.80
2019-01-08T06:36:23.492Z,99602.45
2019-01-08T06:41:30.438Z,99583.47
2019-01-08T06:43:59.962Z,99581.67
2019-01-08T06:46:29.471Z,99579.95
2019-01-08T06:48:58.987Z,99566.59
2019-01-08T06:51:28.496Z,99561.02
2019-01-08T06:53:58.097Z,99555.41
2019-01-08T06:56:27.680Z,99551.95
2019-01-08T06:58:57.300Z,99553.25
2019-01-08T07:01:26.805Z,99540.31
2019-01-08T07:03:56.331Z,99545.95
2019-01-08T07:06:25.839Z,99543.37
2019-01-08T07:08:55.470Z,99530.03
2019-01-08T07:11:24.975Z,99527.41
2019-01-08T07:13:54.502Z,99528.28
2019-01-08T07:16:24.077Z,99519.67
2019-01-08T07:18:53.668Z,99516.23
2019-01-08T07:21:23.193Z,99508.03
2019-01-08T07:23:52.700Z,99503.67
2019-01-08T07:26:22.217Z,99500.22
2019-01-08T07:28:51.740Z,99495.02
2019-01-08T07:31:21.287Z,99488.98
2019-01-08T07:33:50.783Z,99484.25
2019-01-08T07:36:20.314Z,99478.66
2019-01-08T07:38:49.820Z,99467.06
2019-01-08T07:41:19.348Z,99466.23
2019-01-08T07:43:48.859Z,99463.67
2019-01-08T07:46:18.382Z,99446.40
2019-01-08T07:48:47.915Z,99439.44
2019-01-08T07:51:17.434Z,99434.24
2019-01-08T07:53:46.937Z,99432.08
2019-01-08T07:56:16.541Z,99417.00
2019-01-08T07:58:46.050Z,99408.40
2019-01-08T08:01:15.575Z,99414.48
2019-01-08T08:03:45.218Z,99409.35
2019-01-08T08:06:14.712Z,99398.14
2019-01-08T08:08:44.232Z,99395.56
2019-01-08T08:11:13.842Z,99386.50
2019-01-08T08:13:43.344Z,99383.02
2019-01-08T08:16:12.889Z,99369.62
2019-01-08T08:18:42.398Z,99379.95
2019-01-08T08:21:12.002Z,99377.34
2019-01-08T08:23:41.499Z,99378.19
2019-01-08T08:26:11.017Z,99365.22
2019-01-08T08:28:40.523Z,99369.09
2019-01-08T08:31:10.050Z,99368.20
2019-01-08T08:33:39.562Z,99347.94
2019-01-08T08:36:09.074Z,99348.75
2019-01-08T08:38:38.586Z,99337.51
2019-01-08T08:41:08.106Z,99340.48
2019-01-08T08:43:37.788Z,99336.58
2019-01-08T08:46:07.378Z,99327.53
2019-01-08T08:48:36.886Z,99315.92
2019-01-08T08:51:06.405Z,99308.63
2019-01-08T08:53:35.921Z,99302.66
2019-01-08T08:56:05.418Z,99294.97
2019-01-08T08:58:34.935Z,99295.50
2019-01-08T09:01:06.981Z,99274.44
2019-01-08T09:03:35.682Z,99283.95
2019-01-08T09:06:05.255Z,99274.42
2019-01-08T09:08:34.779Z,99267.49
2019-01-08T09:11:04.346Z,99262.30
2019-01-08T09:13:33.912Z,99252.38
2019-01-08T09:16:03.361Z,99247.63
2019-01-08T09:18:33.800Z,99242.00
2019-01-08T09:21:03.310Z,99246.34
2019-01-08T09:23:36.121Z,99239.90
2019-01-08T09:26:05.714Z,99234.30
2019-01-08T09:28:35.225Z,99238.61
2019-01-08T09:31:04.733Z,99234.25
2019-01-08T09:33:34.256Z,99223.84
2019-01-08T09:36:03.764Z,99217.34
2019-01-08T09:38:33.298Z,99204.79
2019-01-08T09:41:02.805Z,99200.01
2019-01-08T09:43:32.419Z,99194.83
2019-01-08T09:46:01.925Z,99194.83
2019-01-08T09:48:31.460Z,99182.31
2019-01-08T09:51:00.986Z,99182.31
2019-01-08T09:53:30.534Z,99181.88
2019-01-08T09:56:00.076Z,99176.72
2019-01-08T09:58:29.693Z,99172.82
2019-01-08T10:00:59.228Z,99167.22
2019-01-08T10:03:28.750Z,99154.30
2019-01-08T10:05:58.255Z,99150.84
2019-01-08T10:08:27.845Z,99143.95
2019-01-08T10:10:57.350Z,99143.06
2019-01-08T10:13:27.454Z,99127.98
2019-01-08T10:15:56.963Z,99134.05
2019-01-08T10:18:26.477Z,99116.78
2019-01-08T10:20:56.001Z,99121.98
2019-01-08T10:23:25.501Z,99115.97
2019-01-08T10:25:55.063Z,99111.69
2019-01-08T10:28:24.532Z,99087.53
2019-01-08T10:30:54.126Z,99103.93
2019-01-08T10:33:23.638Z,99093.56
2019-01-08T10:35:53.163Z,99085.35
2019-01-08T10:38:22.667Z,99077.17
2019-01-08T10:40:52.205Z,99071.60
2019-01-08T10:43:21.706Z,99067.73
2019-01-08T10:45:51.227Z,99066.88
2019-01-08T10:48:20.761Z,99063.44
2019-01-08T10:50:52.620Z,99062.58
2019-01-08T10:53:22.254Z,99062.58
2019-01-08T10:55:51.805Z,99046.61
2019-01-08T10:58:21.323Z,99043.61
2019-01-08T11:00:50.868Z,99046.63
2019-01-08T11:03:20.350Z,99040.61
2019-01-08T11:05:49.865Z,99030.30
2019-01-08T11:08:19.370Z,99032.89
2019-01-08T11:10:48.905Z,99025.50
2019-01-08T11:13:18.407Z,99023.75
2019-01-08T11:15:47.929Z,99024.60
2019-01-08T11:18:17.443Z,99016.83
2019-01-08T11:20:46.962Z,99013.81
2019-01-08T11:23:16.474Z,99010.78
2019-01-08T11:25:45.992Z,99011.22
2019-01-08T11:28:15.507Z,99015.55
2019-01-08T11:30:45.205Z,99004.77
2019-01-08T11:33:14.732Z,98994.83
2019-01-08T11:35:44.250Z,98987.48
2019-01-08T11:38:13.803Z,98984.47
2019-01-08T11:40:43.308Z,98985.34
2019-01-08T11:43:12.837Z,98978.42
2019-01-08T11:45:42.372Z,98981.05
2019-01-08T11:48:12.228Z,98965.57
2019-01-08T11:50:41.790Z,98957.81
2019-01-08T11:53:11.309Z,98962.53
2019-01-08T11:55:40.865Z,98974.61
2019-01-08T11:58:10.383Z,98976.38
2019-01-08T12:00:39.912Z,98960.40
2019-01-08T12:03:09.471Z,98970.32
2019-01-08T12:05:39.013Z,98968.16
2019-01-08T12:08:08.532Z,98955.22
2019-01-08T12:10:38.062Z,98947.42
2019-01-08T12:13:07.588Z,98956.95
2019-01-08T12:15:37.123Z,98961.27
2019-01-08T12:18:06.623Z,98951.77
2019-01-08T12:20:36.161Z,98950.45
2019-01-08T12:23:05.658Z,98952.19
2019-01-08T12:25:35.197Z,98944.02
2019-01-08T12:28:04.701Z,98945.76
2019-01-08T12:30:34.309Z,98953.53
2019-01-08T12:33:03.818Z,98934.95
2019-01-08T12:35:33.375Z,98936.69
2019-01-08T12:38:02.907Z,98938.86
2019-01-08T12:40:32.430Z,98947.06
2019-01-08T12:43:01.982Z,98945.77
2019-01-08T12:45:31.613Z,98950.95
2019-01-08T12:48:01.165Z,98943.18
2019-01-08T12:50:30.740Z,98950.95
2019-01-08T12:53:00.343Z,98941.02
2019-01-08T12:55:29.863Z,98952.23
2019-01-08T12:57:59.397Z,98948.78
2019-01-08T13:00:28.938Z,98957.84
2019-01-08T13:02:58.472Z,98957.84
2019-01-08T13:05:27.985Z,98955.27
2019-01-08T13:07:57.572Z,98964.77
2019-01-08T13:10:27.089Z,98955.69
2019-01-08T13:12:56.641Z,98952.66
2019-01-08T13:15:26.224Z,98957.40
2019-01-08T13:17:55.761Z,98951.78
2019-01-08T13:20:25.344Z,98945.31
2019-01-08T13:22:54.959Z,98956.09
2019-01-08T13:25:24.427Z,98950.48
2019-01-08T13:27:53.964Z,98957.81
2019-01-08T13:30:23.479Z,98955.25
2019-01-08T13:32:53.052Z,98959.56
2019-01-08T13:35:22.544Z,98963.42
2019-01-08T13:37:52.095Z,98956.95
2019-01-08T13:40:21.619Z,98951.37
2019-01-08T13:42:51.132Z,98967.77
2019-01-08T13:45:20.662Z,98970.80
2019-01-08T13:47:50.203Z,98959.11
2019-01-08T13:50:19.714Z,98967.75
2019-01-08T13:52:49.266Z,98958.69
2019-01-08T13:55:18.775Z,98966.89
2019-01-08T13:57:48.483Z,98978.56
2019-01-08T14:00:17.988Z,98988.49
2019-01-08T14:02:47.499Z,98982.88
2019-01-08T14:05:17.033Z,98980.72
2019-01-08T14:07:46.567Z,98976.83
2019-01-08T14:10:16.109Z,98980.72
2019-01-08T14:12:45.633Z,98990.22
2019-01-08T14:15:15.146Z,98983.30
2019-01-08T14:17:44.663Z,98989.34
2019-01-08T14:20:14.194Z,98989.77
2019-01-08T14:22:43.700Z,98992.37
2019-01-08T14:25:13.219Z,98996.27
2019-01-08T14:27:42.748Z,98998.88
2019-01-08T14:30:12.284Z,98990.67
2019-01-08T14:32:41.801Z,98983.34
2019-01-08T14:35:11.357Z,98988.52
2019-01-08T14:37:40.886Z,98996.27
2019-01-08T14:40:11.385Z,99004.05
2019-01-08T14:42:40.956Z,98993.25
2019-01-08T14:45:10.587Z,98997.13
2019-01-08T14:47:40.396Z,98995.84
2019-01-08T14:50:10.007Z,99002.77
2019-01-08T14:52:39.499Z,99004.05
2019-01-08T14:55:09.155Z,98998.42
2019-01-08T14:57:38.703Z,98998.84
2019-01-08T15:00:10.291Z,99007.04
2019-01-08T15:02:39.839Z,99001.85
2019-01-08T15:05:09.542Z,99016.09
2019-01-08T15:07:39.058Z,99020.42
2019-01-08T15:10:09.544Z,99016.10
2019-01-08T15:12:39.193Z,99011.80
2019-01-08T15:15:08.781Z,99017.39
2019-01-08T15:17:38.313Z,99007.44
2019-01-08T15:20:08.687Z,99026.42
2019-01-08T15:22:38.199Z,99012.19
2019-01-08T15:25:07.796Z,99018.22
2019-01-08T15:27:37.359Z,99026.80
2019-01-08T15:30:10.066Z,99030.25
2019-01-08T15:32:39.592Z,99033.25
2019-01-08T15:35:09.446Z,99025.91
2019-01-08T15:37:38.971Z,99016.41
2019-01-08T15:40:08.554Z,99020.72
2019-01-08T15:42:38.125Z,99023.75
2019-01-08T15:45:09.482Z,99018.55
2019-01-08T15:47:39.043Z,99024.13
2019-01-08T15:50:09.266Z,99021.51
2019-01-08T15:52:38.786Z,99010.75
2019-01-08T15:55:08.686Z,99012.02
2019-01-08T15:57:38.417Z,99019.36
2019-01-08T16:00:10.796Z,99016.36
2019-01-08T16:02:40.324Z,99029.34
2019-01-08T16:05:09.926Z,99020.71
2019-01-08T16:07:39.622Z,99021.14
2019-01-08T16:10:09.409Z,99031.06
2019-01-08T16:12:39.078Z,99032.33
2019-01-08T16:15:08.691Z,99033.19
2019-01-08T16:17:38.212Z,99032.35
2019-01-08T16:20:08.105Z,99035.84
2019-01-08T16:22:37.627Z,99030.66
2019-01-08T16:25:07.603Z,99036.22
2019-01-08T16:27:37.129Z,99032.29
2019-01-08T16:30:08.371Z,99030.94
2019-01-08T16:32:37.893Z,99028.28
2019-01-08T16:35:07.595Z,99039.48
2019-01-08T16:37:37.109Z,99045.11
2019-01-08T16:40:09.909Z,99045.16
2019-01-08T16:42:39.494Z,99043.88
2019-01-08T16:45:09.076Z,99050.81
2019-01-08T16:47:38.685Z,99055.16
2019-01-08T16:50:08.496Z,99068.52
2019-01-08T16:52:38.035Z,99075.29
2019-01-08T16:55:07.711Z,99070.33
2019-01-08T16:57:37.463Z,99085.67
2019-01-08T17:00:10.938Z,99078.20
2019-01-08T17:02:40.438Z,99084.55
2019-01-08T17:05:10.150Z,99084.06
2019-01-08T17:07:39.660Z,99091.34
2019-01-08T17:10:09.864Z,99094.77
2019-01-08T17:12:39.468Z,99088.31
2019-01-08T17:15:09.211Z,99086.17
2019-01-08T17:17:38.915Z,99096.06
2019-01-08T17:20:08.871Z,99104.22
2019-01-08T17:22:38.462Z,99100.34
2019-01-08T17:25:08.117Z,99111.14
2019-01-08T17:27:37.651Z,99099.98
2019-01-08T17:30:09.959Z,99105.14
2019-01-08T17:32:39.630Z,99110.73
2019-01-08T17:35:09.291Z,99114.57
2019-01-08T17:37:38.796Z,99109.39
2019-01-08T17:40:09.437Z,99106.81
2019-01-08T17:42:38.939Z,99104.64
2019-01-08T17:45:10.880Z,99119.67
2019-01-08T17:47:40.542Z,99117.91
2019-01-08T17:50:10.040Z,99118.74
2019-01-08T17:52:39.554Z,99128.20
2019-01-08T17:55:09.190Z,99124.75
2019-01-08T17:57:38.697Z,99124.31
2019-01-08T18:00:11.269Z,99136.34
2019-01-08T18:02:42.994Z,99138.06
2019-01-08T18:05:12.505Z,99136.77
2019-01-08T18:07:42.114Z,99138.50
2019-01-08T18:10:11.833Z,99132.90
2019-01-08T18:12:41.351Z,99135.05
2019-01-08T18:15:10.968Z,99132.05
2019-01-08T18:17:40.731Z,99145.84
2019-01-08T18:20:10.315Z,99146.27
2019-01-08T18:22:39.821Z,99146.25
2019-01-08T18:25:09.807Z,99140.18
2019-01-08T18:27:39.322Z,99143.16
2019-01-08T18:30:09.395Z,99149.15
2019-01-08T18:32:39.034Z,99145.64
2019-01-08T18:35:08.547Z,99158.06
2019-01-08T18:37:38.211Z,99152.41
2019-01-08T18:40:08.026Z,99161.82
2019-01-08T18:42:37.696Z,99158.78
2019-01-08T18:45:07.551Z,99165.63
2019-01-08T18:47:37.069Z,99157.79
2019-01-08T18:50:07.172Z,99163.75
2019-01-08T18:52:36.680Z,99173.58
2019-01-08T18:55:06.714Z,99164.03
2019-01-08T18:57:36.240Z,99164.80
2019-01-08T19:00:08.796Z,99169.47
2019-01-08T19:02:38.310Z,99174.55
2019-01-08T19:05:08.760Z,99183.55
2019-01-08T19:07:38.346Z,99183.55
2019-01-08T19:10:15.526Z,99184.81
2019-01-08T19:12:47.632Z,99183.08
2019-01-08T19:15:17.288Z,99188.23
2019-01-08T19:17:46.935Z,99189.53
2019-01-08T19:20:16.718Z,99182.66
2019-01-08T19:22:46.233Z,99182.23
2019-01-08T19:25:15.945Z,99192.11
2019-01-08T19:27:45.469Z,99184.73
2019-01-08T19:30:15.065Z,99191.55
2019-01-08T19:32:44.785Z,99185.05
2019-01-08T19:35:14.286Z,99189.36
2019-01-08T19:37:43.779Z,99184.20
2019-01-08T19:40:13.378Z,99184.20
2019-01-08T19:42:42.956Z,99182.02
2019-01-08T19:45:12.468Z,99185.02
2019-01-08T19:47:42.109Z,99184.98
2019-01-08T19:50:11.754Z,99177.28
2019-01-08T19:52:41.316Z,99173.83
2019-01-08T19:55:11.088Z,99181.17
2019-01-08T19:57:40.757Z,99177.36
2019-01-08T20:00:12.119Z,99179.52
2019-01-08T20:02:41.808Z,99169.63
2019-01-08T20:05:11.341Z,99157.13
2019-01-08T20:07:40.867Z,99163.59
2019-01-08T20:10:10.686Z,99167.05
2019-01-08T20:12:40.196Z,99179.07
2019-01-08T20:15:10.180Z,99170.08
2019-01-08T20:17:39.948Z,99161.91
2019-01-08T20:20:10.139Z,99148.63
2019-01-08T20:22:39.716Z,99177.41
2019-01-08T20:25:09.476Z,99174.00
2019-01-08T20:27:39.058Z,99171.86
2019-01-08T20:30:09.234Z,99183.05
2019-01-08T20:32:38.874Z,99174.05
2019-01-08T20:35:10.192Z,99170.20
2019-01-08T20:37:39.920Z,99174.99
2019-01-08T20:40:10.136Z,99172.41
2019-01-08T20:42:39.856Z,99174.94
2019-01-08T20:45:09.714Z,99174.84
2019-01-08T20:47:39.249Z,99179.94
2019-01-08T20:50:08.838Z,99173.89
2019-01-08T20:52:38.361Z,99171.28
2019-01-08T20:55:07.963Z,99178.59
2019-01-08T20:57:37.490Z,99169.13
2019-01-08T21:00:09.794Z,99169.09
2019-01-08T21:02:39.324Z,99173.38
2019-01-08T21:05:08.902Z,99169.54
2019-01-08T21:07:38.588Z,99173.38
2019-01-08T21:10:09.136Z,99164.83
2019-01-08T21:12:38.694Z,99181.23
2019-01-08T21:15:08.488Z,99171.36
2019-01-08T21:17:37.988Z,99170.47
2019-01-08T21:20:08.539Z,99173.89
2019-01-08T21:22:38.086Z,99163.09
2019-01-08T21:25:08.878Z,99182.41
2019-01-08T21:27:38.696Z,99182.83
2019-01-08T21:30:27.777Z,99184.12
2019-01-08T21:32:57.321Z,99180.26
2019-01-08T21:35:26.776Z,99184.09
2019-01-08T21:37:56.522Z,99177.17
2019-01-08T21:40:26.020Z,99174.98
2019-01-08T21:42:55.622Z,99184.91
2019-01-08T21:45:25.163Z,99177.14
2019-01-08T21:47:54.850Z,99171.96
2019-01-08T21:50:24.392Z,99179.67
2019-01-08T21:52:53.929Z,99159.02
2019-01-08T21:55:23.548Z,99179.28
2019-01-08T21:57:53.081Z,99172.41
2019-01-08T22:00:22.654Z,99168.59
2019-01-08T22:02:52.201Z,99173.36
2019-01-08T22:05:21.914Z,99177.23
2019-01-08T22:07:51.826Z,99173.75
2019-01-08T22:10:21.435Z,99182.33
2019-01-08T22:12:50.946Z,99181.02
2019-01-08T22:15:20.570Z,99176.67
2019-01-08T22:17:50.097Z,99177.51
2019-01-08T22:20:19.599Z,99169.77
2019-01-08T22:22:52.702Z,99174.06
2019-01-08T22:25:20.691Z,99174.06
2019-01-08T22:27:50.215Z,99171.91
2019-01-08T22:30:19.889Z,99164.20
2019-01-08T22:32:49.396Z,99170.20
2019-01-08T22:35:18.894Z,99165.43
2019-01-08T22:37:48.525Z,99169.27
2019-01-08T22:40:18.104Z,99162.41
2019-01-08T22:42:47.814Z,99174.88
2019-01-08T22:45:17.531Z,99162.80
2019-01-08T22:47:47.031Z,99166.64
2019-01-08T22:50:16.538Z,99170.09
2019-01-08T22:52:46.152Z,99174.41
2019-01-08T22:55:15.827Z,99164.51
2019-01-08T22:57:45.499Z,99173.92
2019-01-08T23:00:20.467Z,99171.77
2019-01-08T23:02:49.962Z,99172.63
2019-01-08T23:05:19.466Z,99169.19
2019-01-08T23:07:49.010Z,99167.06
2019-01-08T23:10:18.523Z,99174.80
2019-01-08T23:12:48.033Z,99176.92
2019-01-08T23:15:17.553Z,99173.89
2019-01-08T23:17:47.055Z,99178.18
2019-01-08T23:20:16.839Z,99163.08
2019-01-08T23:22:46.362Z,99171.65
2019-01-08T23:25:16.106Z,99162.20
2019-01-08T23:27:45.613Z,99165.66
2019-01-08T23:30:15.205Z,99174.26
2019-01-08T23:32:44.713Z,99175.09
2019-01-08T23:35:19.462Z,99174.23
2019-01-08T23:37:45.547Z,99176.36
2019-01-08T23:40:15.065Z,99183.61
2019-01-08T23:42:44.584Z,99180.14
2019-01-08T23:45:14.359Z,99181.42
2019-01-08T23:47:43.864Z,99186.07
2019-01-08T23:50:13.444Z,99169.70
2019-01-08T23:52:50.386Z,99173.13
2019-01-08T23:55:23.535Z,99182.53
2019-01-08T23:57:53.683Z,99178.64
